sensor_id;sensor_type;location;lat;lon;timestamp;temperature;humidity
16321;DHT22;8269;50.990;4.494;2023-02-10T00:00:25;3.20;99.90
16321;DHT22;8269;50.990;4.494;2023-02-10T00:02:50;3.20;99.90
16321;DHT22;8269;50.990;4.494;2023-02-10T00:05:16;3.30;99.90
16321;DHT22;8269;50.990;4.494;2023-02-10T00:07:41;3.30;99.90
16321;DHT22;8269;50.990;4.494;2023-02-10T00:10:07;3.30;99.90
16321;DHT22;8269;50.990;4.494;2023-02-10T00:12:36;3.30;99.90
16321;DHT22;8269;50.990;4.494;2023-02-10T00:15:05;3.20;99.90
16321;DHT22;8269;50.990;4.494;2023-02-10T00:17:31;3.20;99.90
16321;DHT22;8269;50.990;4.494;2023-02-10T00:19:56;3.20;99.90
16321;DHT22;8269;50.990;4.494;2023-02-10T00:22:24;3.00;99.90
16321;DHT22;8269;50.990;4.494;2023-02-10T00:24:49;2.90;99.90
16321;DHT22;8269;50.990;4.494;2023-02-10T00:27:15;2.80;99.90
16321;DHT22;8269;50.990;4.494;2023-02-10T00:29:40;2.70;99.90
16321;DHT22;8269;50.990;4.494;2023-02-10T00:32:07;2.60;99.90
16321;DHT22;8269;50.990;4.494;2023-02-10T00:34:36;2.50;99.90
16321;DHT22;8269;50.990;4.494;2023-02-10T00:37:01;2.40;99.90
16321;DHT22;8269;50.990;4.494;2023-02-10T00:39:28;2.30;99.90
16321;DHT22;8269;50.990;4.494;2023-02-10T00:41:54;2.30;99.90
16321;DHT22;8269;50.990;4.494;2023-02-10T00:44:19;2.20;99.90
16321;DHT22;8269;50.990;4.494;2023-02-10T00:46:45;2.10;99.90
16321;DHT22;8269;50.990;4.494;2023-02-10T00:49:11;2.10;99.90
16321;DHT22;8269;50.990;4.494;2023-02-10T00:51:37;2.00;99.90
16321;DHT22;8269;50.990;4.494;2023-02-10T00:54:03;1.90;99.90
16321;DHT22;8269;50.990;4.494;2023-02-10T00:56:28;1.80;99.90
16321;DHT22;8269;50.990;4.494;2023-02-10T00:58:54;1.80;99.90
16321;DHT22;8269;50.990;4.494;2023-02-10T01:01:20;1.70;99.90
16321;DHT22;8269;50.990;4.494;2023-02-10T01:03:45;1.70;99.90
16321;DHT22;8269;50.990;4.494;2023-02-10T01:06:13;1.60;99.90
16321;DHT22;8269;50.990;4.494;2023-02-10T01:08:39;1.60;99.90
16321;DHT22;8269;50.990;4.494;2023-02-10T01:11:09;1.60;99.90
16321;DHT22;8269;50.990;4.494;2023-02-10T01:13:36;1.60;99.90
16321;DHT22;8269;50.990;4.494;2023-02-10T01:16:12;1.60;99.90
16321;DHT22;8269;50.990;4.494;2023-02-10T01:18:39;1.50;99.90
16321;DHT22;8269;50.990;4.494;2023-02-10T01:21:15;1.50;99.90
16321;DHT22;8269;50.990;4.494;2023-02-10T01:23:40;1.50;99.90
16321;DHT22;8269;50.990;4.494;2023-02-10T01:26:07;1.50;99.90
16321;DHT22;8269;50.990;4.494;2023-02-10T01:28:36;1.40;99.90
16321;DHT22;8269;50.990;4.494;2023-02-10T01:31:10;1.40;99.90
16321;DHT22;8269;50.990;4.494;2023-02-10T01:33:36;1.40;99.90
16321;DHT22;8269;50.990;4.494;2023-02-10T01:36:04;1.40;99.90
16321;DHT22;8269;50.990;4.494;2023-02-10T01:38:30;1.30;99.90
16321;DHT22;8269;50.990;4.494;2023-02-10T01:40:56;1.30;99.90
16321;DHT22;8269;50.990;4.494;2023-02-10T01:43:22;1.30;99.90
16321;DHT22;8269;50.990;4.494;2023-02-10T01:45:48;1.20;99.90
16321;DHT22;8269;50.990;4.494;2023-02-10T01:48:14;1.20;99.90
16321;DHT22;8269;50.990;4.494;2023-02-10T01:50:56;1.20;99.90
16321;DHT22;8269;50.990;4.494;2023-02-10T01:53:23;1.20;99.90
16321;DHT22;8269;50.990;4.494;2023-02-10T01:55:51;1.20;99.90
16321;DHT22;8269;50.990;4.494;2023-02-10T01:58:21;1.20;99.90
16321;DHT22;8269;50.990;4.494;2023-02-10T02:00:48;1.30;99.90
16321;DHT22;8269;50.990;4.494;2023-02-10T02:03:14;1.30;99.90
16321;DHT22;8269;50.990;4.494;2023-02-10T02:05:42;1.40;99.90
16321;DHT22;8269;50.990;4.494;2023-02-10T02:08:23;1.40;99.90
16321;DHT22;8269;50.990;4.494;2023-02-10T02:11:12;1.50;99.90
16321;DHT22;8269;50.990;4.494;2023-02-10T02:13:56;1.60;99.90
16321;DHT22;8269;50.990;4.494;2023-02-10T02:25:00;1.70;99.90
16321;DHT22;8269;50.990;4.494;2023-02-10T02:27:39;1.60;99.90
16321;DHT22;8269;50.990;4.494;2023-02-10T02:32:42;1.50;99.90
16321;DHT22;8269;50.990;4.494;2023-02-10T02:35:13;1.40;99.90
16321;DHT22;8269;50.990;4.494;2023-02-10T02:37:45;1.40;99.90
16321;DHT22;8269;50.990;4.494;2023-02-10T02:40:15;1.50;99.90
16321;DHT22;8269;50.990;4.494;2023-02-10T02:42:41;1.50;99.90
16321;DHT22;8269;50.990;4.494;2023-02-10T02:48:03;1.60;99.90
16321;DHT22;8269;50.990;4.494;2023-02-10T02:53:28;1.70;99.90
16321;DHT22;8269;50.990;4.494;2023-02-10T03:01:31;1.60;99.90
16321;DHT22;8269;50.990;4.494;2023-02-10T03:04:01;1.60;99.90
16321;DHT22;8269;50.990;4.494;2023-02-10T03:06:27;1.50;99.90
16321;DHT22;8269;50.990;4.494;2023-02-10T03:08:54;1.40;99.90
16321;DHT22;8269;50.990;4.494;2023-02-10T03:11:21;1.40;99.90
16321;DHT22;8269;50.990;4.494;2023-02-10T03:13:47;1.40;99.90
16321;DHT22;8269;50.990;4.494;2023-02-10T03:16:14;1.30;99.90
16321;DHT22;8269;50.990;4.494;2023-02-10T03:18:39;1.20;99.90
16321;DHT22;8269;50.990;4.494;2023-02-10T03:21:05;1.20;99.90
16321;DHT22;8269;50.990;4.494;2023-02-10T03:23:31;1.10;99.90
16321;DHT22;8269;50.990;4.494;2023-02-10T03:26:00;1.00;99.90
16321;DHT22;8269;50.990;4.494;2023-02-10T03:28:26;1.00;99.90
16321;DHT22;8269;50.990;4.494;2023-02-10T03:30:54;1.00;99.90
16321;DHT22;8269;50.990;4.494;2023-02-10T03:33:20;0.90;99.90
16321;DHT22;8269;50.990;4.494;2023-02-10T03:35:46;0.90;99.90
16321;DHT22;8269;50.990;4.494;2023-02-10T03:38:13;0.80;99.90
16321;DHT22;8269;50.990;4.494;2023-02-10T03:40:39;0.70;99.90
16321;DHT22;8269;50.990;4.494;2023-02-10T03:43:05;0.60;99.90
16321;DHT22;8269;50.990;4.494;2023-02-10T03:45:31;0.60;99.90
16321;DHT22;8269;50.990;4.494;2023-02-10T03:47:57;0.60;99.90
16321;DHT22;8269;50.990;4.494;2023-02-10T03:50:24;0.50;99.90
16321;DHT22;8269;50.990;4.494;2023-02-10T03:52:49;0.50;99.90
16321;DHT22;8269;50.990;4.494;2023-02-10T03:55:15;0.40;99.90
16321;DHT22;8269;50.990;4.494;2023-02-10T03:57:44;0.40;99.90
16321;DHT22;8269;50.990;4.494;2023-02-10T04:00:12;0.40;99.90
16321;DHT22;8269;50.990;4.494;2023-02-10T04:02:37;0.30;99.90
16321;DHT22;8269;50.990;4.494;2023-02-10T04:05:03;0.20;99.90
16321;DHT22;8269;50.990;4.494;2023-02-10T04:07:29;0.20;99.90
16321;DHT22;8269;50.990;4.494;2023-02-10T04:09:54;0.20;99.90
16321;DHT22;8269;50.990;4.494;2023-02-10T04:12:20;0.20;99.90
16321;DHT22;8269;50.990;4.494;2023-02-10T04:14:45;0.20;99.90
16321;DHT22;8269;50.990;4.494;2023-02-10T04:17:11;0.10;99.90
16321;DHT22;8269;50.990;4.494;2023-02-10T04:19:37;0.10;99.90
16321;DHT22;8269;50.990;4.494;2023-02-10T04:22:02;0.10;99.90
16321;DHT22;8269;50.990;4.494;2023-02-10T04:24:28;0.10;99.90
16321;DHT22;8269;50.990;4.494;2023-02-10T04:26:53;0.10;99.90
16321;DHT22;8269;50.990;4.494;2023-02-10T04:29:19;0.10;99.90
16321;DHT22;8269;50.990;4.494;2023-02-10T04:31:45;0.00;99.90
16321;DHT22;8269;50.990;4.494;2023-02-10T04:34:10;0.00;99.90
16321;DHT22;8269;50.990;4.494;2023-02-10T04:36:36;0.00;99.90
16321;DHT22;8269;50.990;4.494;2023-02-10T04:39:02;-0.10;99.90
16321;DHT22;8269;50.990;4.494;2023-02-10T04:41:27;-0.10;99.90
16321;DHT22;8269;50.990;4.494;2023-02-10T04:43:54;-0.20;99.90
16321;DHT22;8269;50.990;4.494;2023-02-10T04:46:20;-0.10;99.90
16321;DHT22;8269;50.990;4.494;2023-02-10T04:48:45;-0.10;99.90
16321;DHT22;8269;50.990;4.494;2023-02-10T04:51:12;-0.20;99.90
16321;DHT22;8269;50.990;4.494;2023-02-10T04:53:39;-0.20;99.90
16321;DHT22;8269;50.990;4.494;2023-02-10T04:56:06;-0.20;99.90
16321;DHT22;8269;50.990;4.494;2023-02-10T04:58:31;-0.30;99.90
16321;DHT22;8269;50.990;4.494;2023-02-10T05:00:57;-0.30;99.90
16321;DHT22;8269;50.990;4.494;2023-02-10T05:03:23;-0.30;99.90
16321;DHT22;8269;50.990;4.494;2023-02-10T05:05:49;-0.40;99.90
16321;DHT22;8269;50.990;4.494;2023-02-10T05:08:17;-0.40;99.90
16321;DHT22;8269;50.990;4.494;2023-02-10T05:10:46;-0.40;99.90
16321;DHT22;8269;50.990;4.494;2023-02-10T05:13:12;-0.40;99.90
16321;DHT22;8269;50.990;4.494;2023-02-10T05:15:38;-0.30;99.90
16321;DHT22;8269;50.990;4.494;2023-02-10T05:18:04;-0.40;99.90
16321;DHT22;8269;50.990;4.494;2023-02-10T05:20:29;-0.40;99.90
16321;DHT22;8269;50.990;4.494;2023-02-10T05:22:55;-0.40;99.90
16321;DHT22;8269;50.990;4.494;2023-02-10T05:25:20;-0.50;99.90
16321;DHT22;8269;50.990;4.494;2023-02-10T05:27:46;-0.50;99.90
16321;DHT22;8269;50.990;4.494;2023-02-10T05:30:12;-0.50;99.90
16321;DHT22;8269;50.990;4.494;2023-02-10T05:32:39;-0.50;99.90
16321;DHT22;8269;50.990;4.494;2023-02-10T05:35:05;-0.50;99.90
16321;DHT22;8269;50.990;4.494;2023-02-10T05:37:30;-0.50;99.90
16321;DHT22;8269;50.990;4.494;2023-02-10T05:39:56;-0.50;99.90
16321;DHT22;8269;50.990;4.494;2023-02-10T05:42:22;-0.50;99.90
16321;DHT22;8269;50.990;4.494;2023-02-10T05:44:47;-0.50;99.90
16321;DHT22;8269;50.990;4.494;2023-02-10T05:47:13;-0.50;99.90
16321;DHT22;8269;50.990;4.494;2023-02-10T05:49:40;-0.40;99.90
16321;DHT22;8269;50.990;4.494;2023-02-10T05:52:05;-0.40;99.90
16321;DHT22;8269;50.990;4.494;2023-02-10T05:54:31;-0.40;99.90
16321;DHT22;8269;50.990;4.494;2023-02-10T05:56:57;-0.40;99.90
16321;DHT22;8269;50.990;4.494;2023-02-10T05:59:23;-0.40;99.90
16321;DHT22;8269;50.990;4.494;2023-02-10T06:01:49;-0.20;99.90
16321;DHT22;8269;50.990;4.494;2023-02-10T06:04:15;-0.30;99.90
16321;DHT22;8269;50.990;4.494;2023-02-10T06:06:41;-0.30;99.90
16321;DHT22;8269;50.990;4.494;2023-02-10T06:09:06;-0.30;99.90
16321;DHT22;8269;50.990;4.494;2023-02-10T06:11:33;-0.30;99.90
16321;DHT22;8269;50.990;4.494;2023-02-10T06:13:59;-0.30;99.90
16321;DHT22;8269;50.990;4.494;2023-02-10T06:16:25;-0.30;99.90
16321;DHT22;8269;50.990;4.494;2023-02-10T06:18:51;-0.40;99.90
16321;DHT22;8269;50.990;4.494;2023-02-10T06:21:16;-0.40;99.90
16321;DHT22;8269;50.990;4.494;2023-02-10T06:23:43;-0.40;99.90
16321;DHT22;8269;50.990;4.494;2023-02-10T06:26:08;-0.30;99.90
16321;DHT22;8269;50.990;4.494;2023-02-10T06:28:34;-0.30;99.90
16321;DHT22;8269;50.990;4.494;2023-02-10T06:31:00;-0.20;99.90
16321;DHT22;8269;50.990;4.494;2023-02-10T06:33:25;-0.20;99.90
16321;DHT22;8269;50.990;4.494;2023-02-10T06:35:52;-0.30;99.90
16321;DHT22;8269;50.990;4.494;2023-02-10T06:38:18;-0.30;99.90
16321;DHT22;8269;50.990;4.494;2023-02-10T06:40:43;-0.30;99.90
16321;DHT22;8269;50.990;4.494;2023-02-10T06:43:11;-0.30;99.90
16321;DHT22;8269;50.990;4.494;2023-02-10T06:45:36;-0.30;99.90
16321;DHT22;8269;50.990;4.494;2023-02-10T06:48:02;-0.30;99.90
16321;DHT22;8269;50.990;4.494;2023-02-10T06:50:28;-0.30;99.90
16321;DHT22;8269;50.990;4.494;2023-02-10T06:52:54;-0.30;99.90
16321;DHT22;8269;50.990;4.494;2023-02-10T06:55:19;-0.30;99.90
16321;DHT22;8269;50.990;4.494;2023-02-10T06:57:45;-0.20;99.90
16321;DHT22;8269;50.990;4.494;2023-02-10T07:00:13;-0.10;99.90
16321;DHT22;8269;50.990;4.494;2023-02-10T07:02:39;0.10;99.90
16321;DHT22;8269;50.990;4.494;2023-02-10T07:05:07;0.30;99.90
16321;DHT22;8269;50.990;4.494;2023-02-10T07:07:36;0.30;99.90
16321;DHT22;8269;50.990;4.494;2023-02-10T07:10:03;0.40;99.90
16321;DHT22;8269;50.990;4.494;2023-02-10T07:12:28;0.50;99.90
16321;DHT22;8269;50.990;4.494;2023-02-10T07:14:54;0.50;99.90
16321;DHT22;8269;50.990;4.494;2023-02-10T07:17:20;0.60;99.90
16321;DHT22;8269;50.990;4.494;2023-02-10T07:19:46;0.80;99.90
16321;DHT22;8269;50.990;4.494;2023-02-10T07:22:12;0.90;99.90
16321;DHT22;8269;50.990;4.494;2023-02-10T07:24:37;0.90;99.90
16321;DHT22;8269;50.990;4.494;2023-02-10T07:27:03;0.90;99.90
16321;DHT22;8269;50.990;4.494;2023-02-10T07:29:29;0.90;99.90
16321;DHT22;8269;50.990;4.494;2023-02-10T07:31:57;1.00;99.90
16321;DHT22;8269;50.990;4.494;2023-02-10T07:34:26;1.00;99.90
16321;DHT22;8269;50.990;4.494;2023-02-10T07:36:52;1.00;99.90
16321;DHT22;8269;50.990;4.494;2023-02-10T07:39:22;1.10;99.90
16321;DHT22;8269;50.990;4.494;2023-02-10T07:41:48;1.20;99.90
16321;DHT22;8269;50.990;4.494;2023-02-10T07:44:14;1.20;99.90
16321;DHT22;8269;50.990;4.494;2023-02-10T07:46:40;1.30;99.90
16321;DHT22;8269;50.990;4.494;2023-02-10T07:49:07;1.30;99.90
16321;DHT22;8269;50.990;4.494;2023-02-10T07:51:33;1.40;99.90
16321;DHT22;8269;50.990;4.494;2023-02-10T07:53:59;1.40;99.90
16321;DHT22;8269;50.990;4.494;2023-02-10T07:56:24;1.50;99.90
16321;DHT22;8269;50.990;4.494;2023-02-10T07:58:50;1.60;99.90
16321;DHT22;8269;50.990;4.494;2023-02-10T08:01:16;1.60;99.90
16321;DHT22;8269;50.990;4.494;2023-02-10T08:03:41;1.70;99.90
16321;DHT22;8269;50.990;4.494;2023-02-10T08:06:07;1.70;99.90
16321;DHT22;8269;50.990;4.494;2023-02-10T08:08:33;1.60;99.90
16321;DHT22;8269;50.990;4.494;2023-02-10T08:11:04;1.60;99.90
16321;DHT22;8269;50.990;4.494;2023-02-10T08:13:31;1.60;99.90
16321;DHT22;8269;50.990;4.494;2023-02-10T08:16:02;1.70;99.90
16321;DHT22;8269;50.990;4.494;2023-02-10T08:18:28;1.80;99.90
16321;DHT22;8269;50.990;4.494;2023-02-10T08:20:53;1.80;99.90
16321;DHT22;8269;50.990;4.494;2023-02-10T08:23:19;1.90;99.90
16321;DHT22;8269;50.990;4.494;2023-02-10T08:25:45;1.90;99.90
16321;DHT22;8269;50.990;4.494;2023-02-10T08:28:10;2.00;99.90
16321;DHT22;8269;50.990;4.494;2023-02-10T08:30:36;2.10;99.90
16321;DHT22;8269;50.990;4.494;2023-02-10T08:33:02;2.20;99.90
16321;DHT22;8269;50.990;4.494;2023-02-10T08:35:28;2.30;99.90
16321;DHT22;8269;50.990;4.494;2023-02-10T08:37:53;2.50;99.90
16321;DHT22;8269;50.990;4.494;2023-02-10T08:40:19;2.60;99.90
16321;DHT22;8269;50.990;4.494;2023-02-10T08:42:45;2.70;99.90
16321;DHT22;8269;50.990;4.494;2023-02-10T08:45:11;2.90;99.90
16321;DHT22;8269;50.990;4.494;2023-02-10T08:47:37;3.00;99.90
16321;DHT22;8269;50.990;4.494;2023-02-10T08:50:03;3.10;99.90
16321;DHT22;8269;50.990;4.494;2023-02-10T08:52:29;3.20;99.90
16321;DHT22;8269;50.990;4.494;2023-02-10T08:54:55;3.20;99.90
16321;DHT22;8269;50.990;4.494;2023-02-10T08:57:22;3.30;99.90
16321;DHT22;8269;50.990;4.494;2023-02-10T08:59:47;3.20;99.90
16321;DHT22;8269;50.990;4.494;2023-02-10T09:02:13;3.20;99.90
16321;DHT22;8269;50.990;4.494;2023-02-10T09:04:40;3.20;99.90
16321;DHT22;8269;50.990;4.494;2023-02-10T09:07:06;3.30;99.90
16321;DHT22;8269;50.990;4.494;2023-02-10T09:09:40;3.30;99.90
16321;DHT22;8269;50.990;4.494;2023-02-10T09:12:06;3.40;99.90
16321;DHT22;8269;50.990;4.494;2023-02-10T09:14:34;3.50;99.90
16321;DHT22;8269;50.990;4.494;2023-02-10T09:17:00;3.50;99.90
16321;DHT22;8269;50.990;4.494;2023-02-10T09:19:26;3.60;99.90
16321;DHT22;8269;50.990;4.494;2023-02-10T09:21:51;3.70;99.90
16321;DHT22;8269;50.990;4.494;2023-02-10T09:24:17;3.90;99.90
16321;DHT22;8269;50.990;4.494;2023-02-10T09:26:43;4.00;99.90
16321;DHT22;8269;50.990;4.494;2023-02-10T09:29:09;4.10;99.90
16321;DHT22;8269;50.990;4.494;2023-02-10T09:31:35;4.20;99.90
16321;DHT22;8269;50.990;4.494;2023-02-10T09:34:01;4.30;99.90
16321;DHT22;8269;50.990;4.494;2023-02-10T09:36:27;4.40;99.90
16321;DHT22;8269;50.990;4.494;2023-02-10T09:38:54;4.30;99.90
16321;DHT22;8269;50.990;4.494;2023-02-10T09:41:35;4.20;99.90
16321;DHT22;8269;50.990;4.494;2023-02-10T09:47:08;4.20;99.90
16321;DHT22;8269;50.990;4.494;2023-02-10T10:00:37;4.50;99.90
16321;DHT22;8269;50.990;4.494;2023-02-10T10:03:07;4.50;99.90
16321;DHT22;8269;50.990;4.494;2023-02-10T10:05:50;4.50;99.90
16321;DHT22;8269;50.990;4.494;2023-02-10T10:08:34;4.60;99.90
16321;DHT22;8269;50.990;4.494;2023-02-10T10:11:15;4.80;99.90
16321;DHT22;8269;50.990;4.494;2023-02-10T10:13:45;5.00;99.90
16321;DHT22;8269;50.990;4.494;2023-02-10T10:16:39;5.10;99.90
16321;DHT22;8269;50.990;4.494;2023-02-10T10:19:32;5.20;99.90
16321;DHT22;8269;50.990;4.494;2023-02-10T10:24:58;5.30;99.90
16321;DHT22;8269;50.990;4.494;2023-02-10T10:30:20;5.40;99.90
16321;DHT22;8269;50.990;4.494;2023-02-10T10:32:52;5.50;99.90
16321;DHT22;8269;50.990;4.494;2023-02-10T10:35:35;5.50;99.90
16321;DHT22;8269;50.990;4.494;2023-02-10T10:38:37;5.60;99.90
16321;DHT22;8269;50.990;4.494;2023-02-10T10:41:11;5.60;99.90
16321;DHT22;8269;50.990;4.494;2023-02-10T10:43:44;5.70;99.90
16321;DHT22;8269;50.990;4.494;2023-02-10T10:46:35;5.80;99.90
16321;DHT22;8269;50.990;4.494;2023-02-10T10:49:03;5.80;99.90
16321;DHT22;8269;50.990;4.494;2023-02-10T10:51:30;5.90;99.90
16321;DHT22;8269;50.990;4.494;2023-02-10T10:53:57;5.90;99.90
16321;DHT22;8269;50.990;4.494;2023-02-10T10:59:31;6.00;99.90
16321;DHT22;8269;50.990;4.494;2023-02-10T11:01:58;6.10;99.90
16321;DHT22;8269;50.990;4.494;2023-02-10T11:04:26;6.10;99.90
16321;DHT22;8269;50.990;4.494;2023-02-10T11:06:56;6.20;99.90
16321;DHT22;8269;50.990;4.494;2023-02-10T11:09:33;6.10;99.90
16321;DHT22;8269;50.990;4.494;2023-02-10T11:12:04;6.30;99.90
16321;DHT22;8269;50.990;4.494;2023-02-10T11:14:38;6.40;99.90
16321;DHT22;8269;50.990;4.494;2023-02-10T11:17:33;6.60;99.90
16321;DHT22;8269;50.990;4.494;2023-02-10T11:20:27;6.60;99.90
16321;DHT22;8269;50.990;4.494;2023-02-10T11:23:13;6.50;99.90
16321;DHT22;8269;50.990;4.494;2023-02-10T11:25:39;6.20;99.90
16321;DHT22;8269;50.990;4.494;2023-02-10T11:28:14;6.00;99.90
16321;DHT22;8269;50.990;4.494;2023-02-10T11:30:41;5.90;99.90
16321;DHT22;8269;50.990;4.494;2023-02-10T11:33:22;5.90;99.90
16321;DHT22;8269;50.990;4.494;2023-02-10T11:36:08;5.90;99.90
16321;DHT22;8269;50.990;4.494;2023-02-10T11:38:35;5.90;99.90
16321;DHT22;8269;50.990;4.494;2023-02-10T11:41:04;5.80;99.90
16321;DHT22;8269;50.990;4.494;2023-02-10T11:43:43;5.80;99.90
16321;DHT22;8269;50.990;4.494;2023-02-10T11:46:29;5.80;99.90
16321;DHT22;8269;50.990;4.494;2023-02-10T11:49:04;5.80;99.90
16321;DHT22;8269;50.990;4.494;2023-02-10T11:51:51;5.80;99.90
16321;DHT22;8269;50.990;4.494;2023-02-10T11:54:18;5.80;99.90
16321;DHT22;8269;50.990;4.494;2023-02-10T12:00:10;5.90;99.90
16321;DHT22;8269;50.990;4.494;2023-02-10T12:05:13;5.90;99.90
16321;DHT22;8269;50.990;4.494;2023-02-10T12:10:39;6.10;99.90
16321;DHT22;8269;50.990;4.494;2023-02-10T12:21:36;6.50;99.90
16321;DHT22;8269;50.990;4.494;2023-02-10T12:26:53;6.50;99.90
16321;DHT22;8269;50.990;4.494;2023-02-10T12:35:42;6.50;99.90
16321;DHT22;8269;50.990;4.494;2023-02-10T12:41:23;6.60;99.90
16321;DHT22;8269;50.990;4.494;2023-02-10T12:46:49;6.60;99.90
16321;DHT22;8269;50.990;4.494;2023-02-10T12:52:40;6.60;99.90
16321;DHT22;8269;50.990;4.494;2023-02-10T12:55:18;6.70;99.90
16321;DHT22;8269;50.990;4.494;2023-02-10T12:58:12;6.70;99.90
16321;DHT22;8269;50.990;4.494;2023-02-10T13:00:47;6.60;99.90
16321;DHT22;8269;50.990;4.494;2023-02-10T13:03:18;6.60;99.90
16321;DHT22;8269;50.990;4.494;2023-02-10T13:05:48;6.60;99.90
16321;DHT22;8269;50.990;4.494;2023-02-10T13:08:22;6.60;99.90
16321;DHT22;8269;50.990;4.494;2023-02-10T13:10:53;6.60;99.90
16321;DHT22;8269;50.990;4.494;2023-02-10T13:13:26;6.50;99.90
16321;DHT22;8269;50.990;4.494;2023-02-10T13:16:16;6.60;99.90
16321;DHT22;8269;50.990;4.494;2023-02-10T13:21:42;6.40;99.90
16321;DHT22;8269;50.990;4.494;2023-02-10T13:24:29;6.40;99.90
16321;DHT22;8269;50.990;4.494;2023-02-10T13:32:48;6.30;99.90
16321;DHT22;8269;50.990;4.494;2023-02-10T13:35:22;6.30;99.90
16321;DHT22;8269;50.990;4.494;2023-02-10T13:37:49;6.30;99.90
16321;DHT22;8269;50.990;4.494;2023-02-10T13:40:28;6.30;99.90
16321;DHT22;8269;50.990;4.494;2023-02-10T13:43:03;6.20;99.90
16321;DHT22;8269;50.990;4.494;2023-02-10T13:45:35;6.30;99.90
16321;DHT22;8269;50.990;4.494;2023-02-10T13:48:21;6.30;99.90
16321;DHT22;8269;50.990;4.494;2023-02-10T13:50:58;6.40;99.90
16321;DHT22;8269;50.990;4.494;2023-02-10T14:06:48;6.50;99.90
16321;DHT22;8269;50.990;4.494;2023-02-10T14:09:19;6.50;99.90
16321;DHT22;8269;50.990;4.494;2023-02-10T14:11:47;6.50;99.90
16321;DHT22;8269;50.990;4.494;2023-02-10T14:17:00;6.60;99.90
16321;DHT22;8269;50.990;4.494;2023-02-10T14:22:01;6.70;99.90
16321;DHT22;8269;50.990;4.494;2023-02-10T14:24:30;6.70;99.90
16321;DHT22;8269;50.990;4.494;2023-02-10T14:27:00;6.70;99.90
16321;DHT22;8269;50.990;4.494;2023-02-10T14:29:28;6.80;99.90
16321;DHT22;8269;50.990;4.494;2023-02-10T14:31:58;6.80;99.90
16321;DHT22;8269;50.990;4.494;2023-02-10T14:34:35;6.80;99.90
16321;DHT22;8269;50.990;4.494;2023-02-10T14:37:18;6.80;99.90
16321;DHT22;8269;50.990;4.494;2023-02-10T14:40:00;6.70;99.90
16321;DHT22;8269;50.990;4.494;2023-02-10T14:42:31;6.70;99.90
16321;DHT22;8269;50.990;4.494;2023-02-10T14:44:59;6.60;99.90
16321;DHT22;8269;50.990;4.494;2023-02-10T14:47:34;6.60;99.90
16321;DHT22;8269;50.990;4.494;2023-02-10T14:50:00;6.60;99.90
16321;DHT22;8269;50.990;4.494;2023-02-10T14:52:35;6.60;99.90
16321;DHT22;8269;50.990;4.494;2023-02-10T14:55:20;6.70;99.90
16321;DHT22;8269;50.990;4.494;2023-02-10T14:57:46;6.80;99.90
16321;DHT22;8269;50.990;4.494;2023-02-10T15:00:14;6.80;99.90
16321;DHT22;8269;50.990;4.494;2023-02-10T15:02:39;6.80;99.90
16321;DHT22;8269;50.990;4.494;2023-02-10T15:05:14;6.90;99.90
16321;DHT22;8269;50.990;4.494;2023-02-10T15:07:47;6.80;99.90
16321;DHT22;8269;50.990;4.494;2023-02-10T15:10:42;6.80;99.90
16321;DHT22;8269;50.990;4.494;2023-02-10T15:13:09;6.70;99.90
16321;DHT22;8269;50.990;4.494;2023-02-10T15:15:39;6.60;99.90
16321;DHT22;8269;50.990;4.494;2023-02-10T15:18:13;6.60;99.90
16321;DHT22;8269;50.990;4.494;2023-02-10T15:20:59;6.60;99.90
16321;DHT22;8269;50.990;4.494;2023-02-10T15:23:25;6.50;99.90
16321;DHT22;8269;50.990;4.494;2023-02-10T15:26:02;6.50;99.90
16321;DHT22;8269;50.990;4.494;2023-02-10T15:28:28;6.50;99.90
16321;DHT22;8269;50.990;4.494;2023-02-10T15:31:03;6.50;99.90
16321;DHT22;8269;50.990;4.494;2023-02-10T15:33:37;6.40;99.90
16321;DHT22;8269;50.990;4.494;2023-02-10T15:39:05;6.50;99.90
16321;DHT22;8269;50.990;4.494;2023-02-10T15:41:43;6.50;99.90
16321;DHT22;8269;50.990;4.494;2023-02-10T15:44:31;6.50;99.90
16321;DHT22;8269;50.990;4.494;2023-02-10T15:49:43;6.50;99.90
16321;DHT22;8269;50.990;4.494;2023-02-10T15:52:30;6.40;99.90
16321;DHT22;8269;50.990;4.494;2023-02-10T15:54:59;6.40;99.90
16321;DHT22;8269;50.990;4.494;2023-02-10T15:57:25;6.40;99.90
16321;DHT22;8269;50.990;4.494;2023-02-10T15:59:52;6.40;99.90
16321;DHT22;8269;50.990;4.494;2023-02-10T16:02:19;6.40;99.90
16321;DHT22;8269;50.990;4.494;2023-02-10T16:04:46;6.30;99.90
16321;DHT22;8269;50.990;4.494;2023-02-10T16:07:17;6.20;99.90
16321;DHT22;8269;50.990;4.494;2023-02-10T16:09:44;6.20;99.90
16321;DHT22;8269;50.990;4.494;2023-02-10T16:12:10;6.20;99.90
16321;DHT22;8269;50.990;4.494;2023-02-10T16:14:36;6.30;99.90
16321;DHT22;8269;50.990;4.494;2023-02-10T16:17:02;6.30;99.90
16321;DHT22;8269;50.990;4.494;2023-02-10T16:19:29;6.30;99.90
16321;DHT22;8269;50.990;4.494;2023-02-10T16:21:55;6.30;99.90
16321;DHT22;8269;50.990;4.494;2023-02-10T16:24:25;6.30;99.90
16321;DHT22;8269;50.990;4.494;2023-02-10T16:26:53;6.30;99.90
16321;DHT22;8269;50.990;4.494;2023-02-10T16:29:29;6.20;99.90
16321;DHT22;8269;50.990;4.494;2023-02-10T16:31:56;6.20;99.90
16321;DHT22;8269;50.990;4.494;2023-02-10T16:34:22;6.10;99.90
16321;DHT22;8269;50.990;4.494;2023-02-10T16:36:47;6.10;99.90
16321;DHT22;8269;50.990;4.494;2023-02-10T16:39:17;6.10;99.90
16321;DHT22;8269;50.990;4.494;2023-02-10T16:41:45;6.00;99.90
16321;DHT22;8269;50.990;4.494;2023-02-10T16:44:11;6.00;99.90
16321;DHT22;8269;50.990;4.494;2023-02-10T16:46:36;6.00;99.90
16321;DHT22;8269;50.990;4.494;2023-02-10T16:49:03;5.90;99.90
16321;DHT22;8269;50.990;4.494;2023-02-10T16:51:29;5.90;99.90
16321;DHT22;8269;50.990;4.494;2023-02-10T16:53:55;5.80;99.90
16321;DHT22;8269;50.990;4.494;2023-02-10T16:56:21;5.80;99.90
16321;DHT22;8269;50.990;4.494;2023-02-10T16:58:47;5.60;99.90
16321;DHT22;8269;50.990;4.494;2023-02-10T17:01:13;5.70;99.90
16321;DHT22;8269;50.990;4.494;2023-02-10T17:03:39;5.70;99.90
16321;DHT22;8269;50.990;4.494;2023-02-10T17:06:06;5.70;99.90
16321;DHT22;8269;50.990;4.494;2023-02-10T17:08:32;5.70;99.90
16321;DHT22;8269;50.990;4.494;2023-02-10T17:10:58;5.70;99.90
16321;DHT22;8269;50.990;4.494;2023-02-10T17:13:24;5.70;99.90
16321;DHT22;8269;50.990;4.494;2023-02-10T17:15:51;5.60;99.90
16321;DHT22;8269;50.990;4.494;2023-02-10T17:18:17;5.70;99.90
16321;DHT22;8269;50.990;4.494;2023-02-10T17:20:43;5.70;99.90
16321;DHT22;8269;50.990;4.494;2023-02-10T17:23:12;5.70;99.90
16321;DHT22;8269;50.990;4.494;2023-02-10T17:25:39;5.70;99.90
16321;DHT22;8269;50.990;4.494;2023-02-10T17:28:05;5.70;99.90
16321;DHT22;8269;50.990;4.494;2023-02-10T17:30:32;5.80;99.90
16321;DHT22;8269;50.990;4.494;2023-02-10T17:33:01;5.90;99.90
16321;DHT22;8269;50.990;4.494;2023-02-10T17:35:27;6.00;99.90
16321;DHT22;8269;50.990;4.494;2023-02-10T17:37:55;6.00;99.90
16321;DHT22;8269;50.990;4.494;2023-02-10T17:40:42;6.00;99.90
16321;DHT22;8269;50.990;4.494;2023-02-10T17:43:08;6.10;99.90
16321;DHT22;8269;50.990;4.494;2023-02-10T17:45:36;6.00;99.90
16321;DHT22;8269;50.990;4.494;2023-02-10T17:48:02;6.20;99.90
16321;DHT22;8269;50.990;4.494;2023-02-10T17:50:30;6.10;99.90
16321;DHT22;8269;50.990;4.494;2023-02-10T17:52:56;6.10;99.90
16321;DHT22;8269;50.990;4.494;2023-02-10T17:55:21;6.10;99.90
16321;DHT22;8269;50.990;4.494;2023-02-10T17:57:47;6.10;99.90
16321;DHT22;8269;50.990;4.494;2023-02-10T18:00:13;5.90;99.90
16321;DHT22;8269;50.990;4.494;2023-02-10T18:02:39;6.00;99.90
16321;DHT22;8269;50.990;4.494;2023-02-10T18:05:06;6.10;99.90